PWSweather.com
Personal Weather Stations
Station Observations
SUBOTICARS
SuboticaYU

SuboticaYU

Lat: 46.1296717, Lon: 19.641551

Elevation: 361

Station Type: Nexus

http://sumeteo.info

High Low Average
Temperature 40.8°F4.9°F 35.2°F1.8°F 37.5°F3.1°F
Dew Point 31.4°F-0.3°F 0.4°F-17.6°F 21.7°F-5.7°F
Winds 11.5 mph NNW18.5 mph NNW Calm Calm 4.8 mph 7.7 mph
Wind Gusts 19.6 mph31.5 mph -- 6.4 mph10.3 mph
Humidity 81% 18% 55%
Pressure 29.75 in1007.50 in 29.47 in998.00 in -
Precipitation 1.24 in31.50 in - -
Hour Temp Dew Point Humidity Winds Wind Gusts Pressure Precip Precip Rate Daily Precip Total
12:00 AM 36.8°F2.7°C 27.6°F-2.4°C 69% 3.5 mph SW5.6 kmh SW 3.5 mph5.6 kmh 29.64 in1003.7 mb - 0.00 in0.0 mm 0.00 in0.0 mm
12:10 AM 36.5°F2.5°C 26.9°F-2.8°C 68% 1.2 mph SW1.9 kmh SW 1.2 mph1.9 kmh 29.63 in1003.4 mb - 0.00 in0.0 mm 0.00 in0.0 mm
12:15 AM 36.3°F2.4°C 27.1°F-2.7°C 69% Calm Calm 1.2 mph1.9 kmh 29.63 in1003.4 mb - 0.00 in0.0 mm 0.00 in0.0 mm
12:20 AM 36.1°F2.3°C 26.9°F-2.8°C 69% 1.2 mph SSW1.9 kmh SSW 3.5 mph5.6 kmh 29.63 in1003.4 mb - 0.00 in0.0 mm 0.00 in0.0 mm
12:25 AM 36.0°F2.2°C 27.1°F-2.7°C 70% 2.3 mph SW3.7 kmh SW 3.5 mph5.6 kmh 29.63 in1003.4 mb - 0.00 in0.0 mm 0.00 in0.0 mm
12:30 AM 35.8°F2.1°C 26.9°F-2.8°C 70% 2.3 mph SW3.7 kmh SW 3.5 mph5.6 kmh 29.62 in1003.0 mb - 0.00 in0.0 mm 0.00 in0.0 mm
12:35 AM 35.6°F2.0°C 26.4°F-3.1°C 69% 2.3 mph SSW3.7 kmh SSW 2.3 mph3.7 kmh 29.62 in1003.0 mb - 0.00 in0.0 mm 0.00 in0.0 mm
12:40 AM 35.6°F2.0°C 26.4°F-3.1°C 69% 3.5 mph S5.6 kmh S 5.8 mph9.3 kmh 29.62 in1003.0 mb - 0.00 in0.0 mm 0.00 in0.0 mm
12:45 AM 35.2°F1.8°C 26.1°F-3.3°C 69% 3.5 mph SW5.6 kmh SW 3.5 mph5.6 kmh 29.62 in1003.0 mb - 0.00 in0.0 mm 0.00 in0.0 mm
12:50 AM 35.4°F1.9°C 25.9°F-3.4°C 68% 3.5 mph SW5.6 kmh SW 3.5 mph5.6 kmh 29.61 in1002.7 mb - 0.00 in0.0 mm 0.00 in0.0 mm
12:55 AM 35.6°F2.0°C 24.6°F-4.1°C 64% 3.5 mph WSW5.6 kmh WSW 5.8 mph9.3 kmh 29.61 in1002.7 mb - 0.00 in0.0 mm 0.00 in0.0 mm
01:00 AM 35.8°F2.1°C 24.4°F-4.2°C 63% 4.6 mph SW7.4 kmh SW 8.1 mph13.0 kmh 29.61 in1002.7 mb - 0.00 in0.0 mm 0.00 in0.0 mm
01:10 AM 35.8°F2.1°C 23.6°F-4.7°C 61% 5.8 mph SSW9.3 kmh SSW 5.8 mph9.3 kmh 29.61 in1002.7 mb - 0.00 in0.0 mm 0.00 in0.0 mm
01:15 AM 35.8°F2.1°C 23.6°F-4.7°C 61% 4.6 mph SW7.4 kmh SW 3.5 mph5.6 kmh 29.61 in1002.7 mb - 0.00 in0.0 mm 0.00 in0.0 mm
01:20 AM 35.8°F2.1°C 24.0°F-4.4°C 62% 3.5 mph S5.6 kmh S 3.5 mph5.6 kmh 29.61 in1002.7 mb - 0.00 in0.0 mm 0.00 in0.0 mm
01:25 AM 35.7°F2.1°C 23.9°F-4.5°C 62% 2.3 mph S3.7 kmh S 4.6 mph7.4 kmh 29.61 in1002.7 mb - 0.00 in0.0 mm 0.00 in0.0 mm
01:30 AM 35.4°F1.9°C 23.7°F-4.6°C 62% 3.5 mph SSW5.6 kmh SSW 3.5 mph5.6 kmh 29.60 in1002.4 mb - 0.00 in0.0 mm 0.00 in0.0 mm
01:35 AM 35.5°F1.9°C 23.8°F-4.6°C 62% 3.5 mph S5.6 kmh S 4.6 mph7.4 kmh 29.60 in1002.4 mb - 0.00 in0.0 mm 0.00 in0.0 mm
01:40 AM 35.8°F2.1°C 22.4°F-5.3°C 58% 2.3 mph SE3.7 kmh SE 3.5 mph5.6 kmh 29.60 in1002.4 mb - 0.00 in0.0 mm 0.00 in0.0 mm
01:45 AM 36.1°F2.3°C 21.5°F-5.8°C 55% 3.5 mph SSW5.6 kmh SSW 10.4 mph16.7 kmh 29.60 in1002.4 mb - 0.00 in0.0 mm 0.00 in0.0 mm
01:50 AM 36.5°F2.5°C 20.1°F-6.6°C 51% 3.5 mph WSW5.6 kmh WSW 2.3 mph3.7 kmh 29.59 in1002.0 mb - 0.00 in0.0 mm 0.00 in0.0 mm
01:55 AM 36.5°F2.5°C 20.5°F-6.4°C 52% 2.3 mph S3.7 kmh S 5.8 mph9.3 kmh 29.59 in1002.0 mb - 0.00 in0.0 mm 0.00 in0.0 mm
02:00 AM 36.5°F2.5°C 21.4°F-5.9°C 54% 2.3 mph SSW3.7 kmh SSW 4.6 mph7.4 kmh 29.59 in1002.0 mb - 0.00 in0.0 mm 0.00 in0.0 mm
02:10 AM 36.5°F2.5°C 21.8°F-5.7°C 55% 2.3 mph W3.7 kmh W 2.3 mph3.7 kmh 29.58 in1001.7 mb - 0.00 in0.0 mm 0.00 in0.0 mm
02:15 AM 36.5°F2.5°C 21.0°F-6.1°C 53% 1.2 mph NNE1.9 kmh NNE 3.5 mph5.6 kmh 29.58 in1001.7 mb - 0.00 in0.0 mm 0.00 in0.0 mm
02:20 AM 36.5°F2.5°C 21.4°F-5.9°C 54% 1.2 mph SSW1.9 kmh SSW 3.5 mph5.6 kmh 29.58 in1001.7 mb - 0.00 in0.0 mm 0.00 in0.0 mm
02:25 AM 36.5°F2.5°C 21.8°F-5.7°C 55% 1.2 mph WSW1.9 kmh WSW 3.5 mph5.6 kmh 29.58 in1001.7 mb - 0.00 in0.0 mm 0.00 in0.0 mm
02:30 AM 37.0°F2.8°C 20.5°F-6.4°C 51% 2.3 mph SW3.7 kmh SW 5.8 mph9.3 kmh 29.59 in1002.0 mb - 0.00 in0.0 mm 0.00 in0.0 mm
02:35 AM 37.4°F3.0°C 19.9°F-6.7°C 49% 3.5 mph WSW5.6 kmh WSW 3.5 mph5.6 kmh 29.59 in1002.0 mb - 0.00 in0.0 mm 0.00 in0.0 mm
02:40 AM 37.6°F3.1°C 20.6°F-6.3°C 50% 3.5 mph WSW5.6 kmh WSW 4.6 mph7.4 kmh 29.59 in1002.0 mb - 0.00 in0.0 mm 0.00 in0.0 mm
02:45 AM 37.8°F3.2°C 21.7°F-5.7°C 52% 3.5 mph SSW5.6 kmh SSW 4.6 mph7.4 kmh 29.59 in1002.0 mb - 0.00 in0.0 mm 0.00 in0.0 mm
02:50 AM 37.8°F3.2°C 22.6°F-5.2°C 54% 3.5 mph W5.6 kmh W 4.6 mph7.4 kmh 29.59 in1002.0 mb - 0.00 in0.0 mm 0.00 in0.0 mm
02:55 AM 37.8°F3.2°C 23.9°F-4.5°C 57% 3.5 mph W5.6 kmh W 3.5 mph5.6 kmh 29.59 in1002.0 mb - 0.00 in0.0 mm 0.00 in0.0 mm
03:00 AM 37.6°F3.1°C 24.1°F-4.4°C 58% 3.5 mph SW5.6 kmh SW 3.5 mph5.6 kmh 29.59 in1002.0 mb - 0.00 in0.0 mm 0.00 in0.0 mm
03:10 AM 37.5°F3.1°C 25.3°F-3.7°C 61% 2.3 mph SW3.7 kmh SW 4.6 mph7.4 kmh 29.58 in1001.7 mb - 0.00 in0.0 mm 0.00 in0.0 mm
03:15 AM 37.4°F3.0°C 25.6°F-3.6°C 62% 3.5 mph SW5.6 kmh SW 5.8 mph9.3 kmh 29.58 in1001.7 mb - 0.00 in0.0 mm 0.00 in0.0 mm
03:20 AM 37.2°F2.9°C 25.8°F-3.4°C 63% 3.5 mph SW5.6 kmh SW 4.6 mph7.4 kmh 29.58 in1001.7 mb - 0.00 in0.0 mm 0.00 in0.0 mm
03:25 AM 37.2°F2.9°C 26.2°F-3.2°C 64% 3.5 mph WSW5.6 kmh WSW 3.5 mph5.6 kmh 29.58 in1001.7 mb - 0.00 in0.0 mm 0.00 in0.0 mm
03:30 AM 37.2°F2.9°C 26.2°F-3.2°C 64% 3.5 mph SW5.6 kmh SW 4.6 mph7.4 kmh 29.56 in1001.0 mb - 0.00 in0.0 mm 0.00 in0.0 mm
03:35 AM 37.0°F2.8°C 26.0°F-3.3°C 64% 3.5 mph SSW5.6 kmh SSW 2.3 mph3.7 kmh 29.56 in1001.0 mb - 0.00 in0.0 mm 0.00 in0.0 mm
03:40 AM 37.1°F2.8°C 26.1°F-3.3°C 64% 2.3 mph SW3.7 kmh SW 2.3 mph3.7 kmh 29.56 in1001.0 mb - 0.00 in0.0 mm 0.00 in0.0 mm
03:45 AM 37.0°F2.8°C 26.0°F-3.3°C 64% 2.3 mph SW3.7 kmh SW 4.6 mph7.4 kmh 29.56 in1001.0 mb - 0.00 in0.0 mm 0.00 in0.0 mm
03:50 AM 37.0°F2.8°C 26.0°F-3.3°C 64% 2.3 mph WSW3.7 kmh WSW 3.5 mph5.6 kmh 29.55 in1000.7 mb - 0.00 in0.0 mm 0.00 in0.0 mm
03:55 AM 37.0°F2.8°C 25.6°F-3.6°C 63% 3.5 mph WSW5.6 kmh WSW 3.5 mph5.6 kmh 29.55 in1000.7 mb - 0.00 in0.0 mm 0.00 in0.0 mm
04:00 AM 37.0°F2.8°C 25.6°F-3.6°C 63% 2.3 mph WSW3.7 kmh WSW 2.3 mph3.7 kmh 29.55 in1000.7 mb - 0.01 in0.3 mm 0.01 in0.3 mm
04:10 AM 37.2°F2.9°C 25.4°F-3.7°C 62% 2.3 mph SSW3.7 kmh SSW 4.6 mph7.4 kmh 29.54 in1000.3 mb - 0.01 in0.3 mm 0.01 in0.3 mm
04:15 AM 37.2°F2.9°C 24.6°F-4.1°C 60% 3.5 mph SW5.6 kmh SW 3.5 mph5.6 kmh 29.54 in1000.3 mb - 0.00 in0.0 mm 0.01 in0.3 mm
04:20 AM 37.2°F2.9°C 24.6°F-4.1°C 60% 2.3 mph SW3.7 kmh SW 3.5 mph5.6 kmh 29.54 in1000.3 mb - 0.00 in0.0 mm 0.01 in0.3 mm
04:25 AM 37.2°F2.9°C 24.2°F-4.3°C 59% 2.3 mph WSW3.7 kmh WSW 3.5 mph5.6 kmh 29.54 in1000.3 mb - 0.00 in0.0 mm 0.01 in0.3 mm
04:30 AM 37.4°F3.0°C 24.0°F-4.4°C 58% 2.3 mph NW3.7 kmh NW 2.3 mph3.7 kmh 29.55 in1000.7 mb - 0.00 in0.0 mm 0.01 in0.3 mm
04:35 AM 37.4°F3.0°C 23.1°F-4.9°C 56% 1.2 mph WSW1.9 kmh WSW 3.5 mph5.6 kmh 29.55 in1000.7 mb - 0.01 in0.3 mm 0.01 in0.3 mm
04:40 AM 37.8°F3.2°C 22.2°F-5.4°C 53% 1.2 mph NW1.9 kmh NW 2.3 mph3.7 kmh 29.55 in1000.7 mb - 0.02 in0.5 mm 0.03 in0.8 mm
04:45 AM 37.9°F3.3°C 21.4°F-5.9°C 51% 1.2 mph WSW1.9 kmh WSW -- 29.55 in1000.7 mb - 0.03 in0.8 mm 0.05 in1.3 mm
04:50 AM 38.1°F3.4°C 21.1°F-6.1°C 50% 1.2 mph W1.9 kmh W -- 29.54 in1000.3 mb - 0.03 in0.8 mm 0.08 in2.0 mm
04:55 AM 38.3°F3.5°C 20.3°F-6.5°C 48% Calm Calm 1.2 mph1.9 kmh 29.54 in1000.3 mb - 0.00 in0.0 mm 0.08 in2.0 mm
05:00 AM 38.3°F3.5°C 20.3°F-6.5°C 48% Calm Calm -- 29.54 in1000.3 mb - 0.01 in0.3 mm 0.09 in2.3 mm
05:10 AM 38.3°F3.5°C 20.8°F-6.2°C 49% Calm Calm -- 29.52 in999.7 mb - 0.01 in0.3 mm 0.10 in2.5 mm
05:15 AM 38.3°F3.5°C 20.8°F-6.2°C 49% Calm Calm 2.3 mph3.7 kmh 29.52 in999.7 mb - 0.01 in0.3 mm 0.11 in2.8 mm
05:20 AM 38.3°F3.5°C 20.8°F-6.2°C 49% 1.2 mph SSW1.9 kmh SSW -- 29.52 in999.7 mb - 0.01 in0.3 mm 0.12 in3.0 mm
05:25 AM 38.3°F3.5°C 20.3°F-6.5°C 48% 1.2 mph ESE1.9 kmh ESE 1.2 mph1.9 kmh 29.52 in999.7 mb - 0.03 in0.8 mm 0.15 in3.8 mm
05:30 AM 38.3°F3.5°C 20.3°F-6.5°C 48% 1.2 mph SE1.9 kmh SE 2.3 mph3.7 kmh 29.51 in999.3 mb - 0.02 in0.5 mm 0.17 in4.3 mm
05:35 AM 38.3°F3.5°C 20.3°F-6.5°C 48% 1.2 mph SE1.9 kmh SE 2.3 mph3.7 kmh 29.51 in999.3 mb - 0.01 in0.3 mm 0.17 in4.3 mm
05:40 AM 38.3°F3.5°C 19.8°F-6.8°C 47% 1.2 mph ENE1.9 kmh ENE -- 29.51 in999.3 mb - 0.01 in0.3 mm 0.18 in4.6 mm
05:45 AM 38.3°F3.5°C 19.8°F-6.8°C 47% Calm Calm -- 29.51 in999.3 mb - 0.03 in0.8 mm 0.21 in5.3 mm
05:50 AM 38.5°F3.6°C 19.5°F-6.9°C 46% Calm Calm -- 29.52 in999.7 mb - 0.03 in0.8 mm 0.24 in6.1 mm
05:55 AM 38.7°F3.7°C 19.1°F-7.2°C 45% Calm Calm -- 29.52 in999.7 mb - 0.03 in0.8 mm 0.25 in6.4 mm
06:00 AM 38.7°F3.7°C 17.5°F-8.1°C 42% 1.2 mph NE1.9 kmh NE 3.5 mph5.6 kmh 29.52 in999.7 mb - 0.02 in0.5 mm 0.27 in6.9 mm
06:10 AM 39.0°F3.9°C 14.9°F-9.5°C 37% 2.3 mph NE3.7 kmh NE 3.5 mph5.6 kmh 29.50 in999.0 mb - 0.03 in0.8 mm 0.30 in7.6 mm
06:15 AM 39.4°F4.1°C 11.9°F-11.2°C 32% 3.5 mph NE5.6 kmh NE 6.9 mph11.1 kmh 29.50 in999.0 mb - 0.01 in0.3 mm 0.31 in7.9 mm
06:20 AM 40.1°F4.5°C 6.1°F-14.4°C 24% 3.5 mph NE5.6 kmh NE 10.4 mph16.7 kmh 29.50 in999.0 mb - 0.02 in0.5 mm 0.33 in8.4 mm
06:25 AM 40.6°F4.8°C 0.4°F-17.6°C 18% 5.8 mph ENE9.3 kmh ENE 10.4 mph16.7 kmh 29.50 in999.0 mb - 0.05 in1.3 mm 0.38 in9.7 mm
06:30 AM 40.8°F4.9°C 0.5°F-17.5°C 18% 4.6 mph NW7.4 kmh NW 4.6 mph7.4 kmh 29.51 in999.3 mb - 0.01 in0.3 mm 0.39 in9.9 mm
06:35 AM 40.8°F4.9°C 3.8°F-15.7°C 21% 4.6 mph NNE7.4 kmh NNE 4.6 mph7.4 kmh 29.51 in999.3 mb - 0.02 in0.5 mm 0.41 in10.4 mm
06:40 AM 40.8°F4.9°C 5.8°F-14.6°C 23% 4.6 mph NNE7.4 kmh NNE 4.6 mph7.4 kmh 29.51 in999.3 mb - 0.01 in0.3 mm 0.42 in10.7 mm
06:45 AM 40.6°F4.8°C 8.4°F-13.1°C 26% 4.6 mph ENE7.4 kmh ENE 10.4 mph16.7 kmh 29.51 in999.3 mb - 0.01 in0.3 mm 0.43 in10.9 mm
06:50 AM 40.3°F4.6°C 12.0°F-11.1°C 31% 4.6 mph ENE7.4 kmh ENE 10.4 mph16.7 kmh 29.52 in999.7 mb - 0.03 in0.8 mm 0.46 in11.7 mm
06:55 AM 40.1°F4.5°C 13.9°F-10.1°C 34% 3.5 mph ENE5.6 kmh ENE 3.5 mph5.6 kmh 29.52 in999.7 mb - 0.03 in0.8 mm 0.47 in11.9 mm
07:00 AM 39.9°F4.4°C 14.4°F-9.8°C 35% 3.5 mph NNE5.6 kmh NNE 4.6 mph7.4 kmh 29.52 in999.7 mb - 0.03 in0.8 mm 0.50 in12.7 mm
07:10 AM 39.7°F4.3°C 15.6°F-9.1°C 37% 3.5 mph NNE5.6 kmh NNE 2.3 mph3.7 kmh 29.53 in1000.0 mb - 0.06 in1.5 mm 0.55 in14.0 mm
07:15 AM 39.7°F4.3°C 16.2°F-8.8°C 38% 3.5 mph NE5.6 kmh NE 4.6 mph7.4 kmh 29.53 in1000.0 mb - 0.02 in0.5 mm 0.57 in14.5 mm
07:20 AM 39.6°F4.2°C 16.0°F-8.9°C 38% 3.5 mph WSW5.6 kmh WSW 4.6 mph7.4 kmh 29.53 in1000.0 mb - 0.03 in0.8 mm 0.59 in15.0 mm
07:25 AM 39.4°F4.1°C 16.4°F-8.7°C 39% 3.5 mph NE5.6 kmh NE 6.9 mph11.1 kmh 29.53 in1000.0 mb - 0.03 in0.8 mm 0.61 in15.5 mm
07:30 AM 39.4°F4.1°C 17.0°F-8.3°C 40% 3.5 mph ENE5.6 kmh ENE 8.1 mph13.0 kmh 29.55 in1000.7 mb - 0.04 in1.0 mm 0.65 in16.5 mm
07:35 AM 39.2°F4.0°C 18.0°F-7.8°C 42% 3.5 mph ENE5.6 kmh ENE 8.1 mph13.0 kmh 29.55 in1000.7 mb - 0.05 in1.3 mm 0.67 in17.0 mm
07:40 AM 39.0°F3.9°C 18.4°F-7.6°C 43% 4.6 mph ENE7.4 kmh ENE 4.6 mph7.4 kmh 29.55 in1000.7 mb - 0.07 in1.8 mm 0.72 in18.3 mm
07:45 AM 38.7°F3.7°C 19.1°F-7.2°C 45% 4.6 mph NE7.4 kmh NE 6.9 mph11.1 kmh 29.55 in1000.7 mb - 0.02 in0.5 mm 0.72 in18.3 mm
07:50 AM 38.7°F3.7°C 19.6°F-6.9°C 46% 4.6 mph NE7.4 kmh NE 6.9 mph11.1 kmh 29.56 in1001.0 mb - 0.07 in1.8 mm 0.78 in19.8 mm
07:55 AM 38.3°F3.5°C 19.8°F-6.8°C 47% 4.6 mph NE7.4 kmh NE 6.9 mph11.1 kmh 29.56 in1001.0 mb - 0.02 in0.5 mm 0.80 in20.3 mm
08:00 AM 38.3°F3.5°C 19.8°F-6.8°C 47% 3.5 mph NE5.6 kmh NE 6.9 mph11.1 kmh 29.56 in1001.0 mb - 0.03 in0.8 mm 0.82 in20.8 mm
08:10 AM 38.1°F3.4°C 20.1°F-6.6°C 48% Calm Calm -- 29.57 in1001.4 mb - 0.04 in1.0 mm 0.85 in21.6 mm
08:15 AM 37.9°F3.3°C 20.0°F-6.7°C 48% Calm Calm -- 29.57 in1001.4 mb - 0.03 in0.8 mm 0.88 in22.4 mm
08:20 AM 37.9°F3.3°C 20.0°F-6.7°C 48% Calm Calm -- 29.57 in1001.4 mb - 0.03 in0.8 mm 0.90 in22.9 mm
08:25 AM 37.8°F3.2°C 19.8°F-6.8°C 48% Calm Calm -- 29.57 in1001.4 mb - 0.02 in0.5 mm 0.92 in23.4 mm
08:30 AM 37.8°F3.2°C 19.8°F-6.8°C 48% Calm Calm -- 29.55 in1000.7 mb - 0.03 in0.8 mm 0.94 in23.9 mm
08:35 AM 37.8°F3.2°C 19.8°F-6.8°C 48% Calm Calm -- 29.55 in1000.7 mb - 0.02 in0.5 mm 0.96 in24.4 mm
08:40 AM 37.6°F3.1°C 19.1°F-7.2°C 47% Calm Calm -- 29.55 in1000.7 mb - 0.02 in0.5 mm 0.96 in24.4 mm
08:45 AM 37.6°F3.1°C 19.1°F-7.2°C 47% Calm Calm -- 29.55 in1000.7 mb - 0.01 in0.3 mm 0.97 in24.6 mm
08:50 AM 37.6°F3.1°C 18.6°F-7.4°C 46% Calm Calm -- 29.54 in1000.3 mb - 0.01 in0.3 mm 0.97 in24.6 mm
08:55 AM 37.6°F3.1°C 18.6°F-7.4°C 46% Calm Calm -- 29.54 in1000.3 mb - 0.00 in0.0 mm 0.97 in24.6 mm
09:00 AM 37.6°F3.1°C 18.1°F-7.7°C 45% 2.3 mph SE3.7 kmh SE 4.6 mph7.4 kmh 29.54 in1000.3 mb - 0.00 in0.0 mm 0.97 in24.6 mm
09:10 AM 37.6°F3.1°C 17.6°F-8.0°C 44% 2.3 mph ESE3.7 kmh ESE 2.3 mph3.7 kmh 29.54 in1000.3 mb - 0.00 in0.0 mm 0.97 in24.6 mm
09:15 AM 37.6°F3.1°C 17.1°F-8.3°C 43% 2.3 mph E3.7 kmh E 4.6 mph7.4 kmh 29.54 in1000.3 mb - 0.01 in0.3 mm 0.98 in24.9 mm
09:20 AM 37.4°F3.0°C 17.4°F-8.1°C 44% 3.5 mph ESE5.6 kmh ESE 8.1 mph13.0 kmh 29.54 in1000.3 mb - 0.00 in0.0 mm 0.98 in24.9 mm
09:25 AM 37.4°F3.0°C 17.4°F-8.1°C 44% 5.8 mph E9.3 kmh E 4.6 mph7.4 kmh 29.54 in1000.3 mb - 0.00 in0.0 mm 0.98 in24.9 mm
09:30 AM 37.4°F3.0°C 17.4°F-8.1°C 44% 4.6 mph E7.4 kmh E 8.1 mph13.0 kmh 29.52 in999.7 mb - 0.00 in0.0 mm 0.98 in24.9 mm
09:35 AM 37.2°F2.9°C 16.7°F-8.5°C 43% 3.5 mph ENE5.6 kmh ENE 2.3 mph3.7 kmh 29.52 in999.7 mb - 0.00 in0.0 mm 0.98 in24.9 mm
09:40 AM 37.2°F2.9°C 16.7°F-8.5°C 43% 2.3 mph NE3.7 kmh NE 3.5 mph5.6 kmh 29.52 in999.7 mb - 0.00 in0.0 mm 0.98 in24.9 mm
09:45 AM 37.4°F3.0°C 16.4°F-8.7°C 42% 2.3 mph E3.7 kmh E 2.3 mph3.7 kmh 29.52 in999.7 mb - 0.00 in0.0 mm 0.98 in24.9 mm
09:50 AM 37.2°F2.9°C 16.2°F-8.8°C 42% 2.3 mph ENE3.7 kmh ENE 3.5 mph5.6 kmh 29.53 in1000.0 mb - 0.00 in0.0 mm 0.98 in24.9 mm
09:55 AM 37.4°F3.0°C 16.4°F-8.7°C 42% 2.3 mph NNE3.7 kmh NNE 2.3 mph3.7 kmh 29.53 in1000.0 mb - 0.00 in0.0 mm 0.98 in24.9 mm
10:00 AM 37.4°F3.0°C 15.8°F-9.0°C 41% 1.2 mph ENE1.9 kmh ENE -- 29.53 in1000.0 mb - 0.00 in0.0 mm 0.98 in24.9 mm
10:10 AM 37.4°F3.0°C 15.2°F-9.3°C 40% 2.3 mph E3.7 kmh E 3.5 mph5.6 kmh 29.52 in999.7 mb - 0.00 in0.0 mm 0.98 in24.9 mm
10:15 AM 37.4°F3.0°C 15.2°F-9.3°C 40% 2.3 mph ENE3.7 kmh ENE 2.3 mph3.7 kmh 29.52 in999.7 mb - 0.00 in0.0 mm 0.98 in24.9 mm
10:20 AM 37.4°F3.0°C 15.2°F-9.3°C 40% 2.3 mph ENE3.7 kmh ENE 3.5 mph5.6 kmh 29.52 in999.7 mb - 0.00 in0.0 mm 0.98 in24.9 mm
10:25 AM 37.4°F3.0°C 15.2°F-9.3°C 40% 2.3 mph NE3.7 kmh NE 3.5 mph5.6 kmh 29.52 in999.7 mb - 0.00 in0.0 mm 0.98 in24.9 mm
10:30 AM 37.4°F3.0°C 14.7°F-9.6°C 39% 2.3 mph NNW3.7 kmh NNW 2.3 mph3.7 kmh 29.53 in1000.0 mb - 0.00 in0.0 mm 0.98 in24.9 mm
10:35 AM 37.4°F3.0°C 14.7°F-9.6°C 39% 2.3 mph ENE3.7 kmh ENE 3.5 mph5.6 kmh 29.53 in1000.0 mb - 0.00 in0.0 mm 0.98 in24.9 mm
10:40 AM 37.4°F3.0°C 14.7°F-9.6°C 39% 2.3 mph NE3.7 kmh NE 2.3 mph3.7 kmh 29.53 in1000.0 mb - 0.00 in0.0 mm 0.98 in24.9 mm
10:45 AM 37.4°F3.0°C 14.7°F-9.6°C 39% 3.5 mph ENE5.6 kmh ENE 3.5 mph5.6 kmh 29.53 in1000.0 mb - 0.00 in0.0 mm 0.98 in24.9 mm
10:50 AM 37.3°F2.9°C 14.6°F-9.7°C 39% 3.5 mph NE5.6 kmh NE 4.6 mph7.4 kmh 29.51 in999.3 mb - 0.00 in0.0 mm 0.98 in24.9 mm
10:55 AM 37.3°F2.9°C 14.5°F-9.7°C 39% 3.5 mph NE5.6 kmh NE 3.5 mph5.6 kmh 29.51 in999.3 mb - 0.00 in0.0 mm 0.98 in24.9 mm
11:00 AM 37.2°F2.9°C 14.5°F-9.7°C 39% 3.5 mph E5.6 kmh E 3.5 mph5.6 kmh 29.51 in999.3 mb - 0.00 in0.0 mm 0.98 in24.9 mm
11:10 AM 37.2°F2.9°C 14.5°F-9.7°C 39% 3.5 mph SE5.6 kmh SE 5.8 mph9.3 kmh 29.48 in998.3 mb - 0.00 in0.0 mm 0.98 in24.9 mm
11:15 AM 37.2°F2.9°C 13.9°F-10.1°C 38% 3.5 mph NE5.6 kmh NE 3.5 mph5.6 kmh 29.48 in998.3 mb - 0.00 in0.0 mm 0.98 in24.9 mm
11:20 AM 37.2°F2.9°C 13.3°F-10.4°C 37% 3.5 mph E5.6 kmh E 3.5 mph5.6 kmh 29.48 in998.3 mb - 0.00 in0.0 mm 0.98 in24.9 mm
11:25 AM 37.4°F3.0°C 13.5°F-10.3°C 37% 2.3 mph NNE3.7 kmh NNE 3.5 mph5.6 kmh 29.48 in998.3 mb - 0.00 in0.0 mm 0.98 in24.9 mm
11:30 AM 37.4°F3.0°C 12.8°F-10.7°C 36% 2.3 mph ENE3.7 kmh ENE 2.3 mph3.7 kmh 29.48 in998.3 mb - 0.00 in0.0 mm 0.98 in24.9 mm
11:35 AM 37.6°F3.1°C 13.0°F-10.6°C 36% 2.3 mph NNE3.7 kmh NNE 2.3 mph3.7 kmh 29.48 in998.3 mb - 0.00 in0.0 mm 0.98 in24.9 mm
11:40 AM 37.6°F3.1°C 13.0°F-10.6°C 36% 1.2 mph ENE1.9 kmh ENE 3.5 mph5.6 kmh 29.48 in998.3 mb - 0.00 in0.0 mm 0.98 in24.9 mm
11:45 AM 37.6°F3.1°C 13.0°F-10.6°C 36% 1.2 mph WNW1.9 kmh WNW -- 29.48 in998.3 mb - 0.00 in0.0 mm 0.98 in24.9 mm
11:50 AM 37.7°F3.2°C 13.1°F-10.5°C 36% 1.2 mph NNW1.9 kmh NNW 2.3 mph3.7 kmh 29.49 in998.6 mb - 0.00 in0.0 mm 0.98 in24.9 mm
11:55 AM 37.9°F3.3°C 12.7°F-10.7°C 35% Calm Calm 1.2 mph1.9 kmh 29.49 in998.6 mb - 0.00 in0.0 mm 0.98 in24.9 mm
12:00 PM 37.7°F3.2°C 12.5°F-10.8°C 35% 1.2 mph NE1.9 kmh NE 1.2 mph1.9 kmh 29.49 in998.6 mb - 0.00 in0.0 mm 0.98 in24.9 mm
12:10 PM 37.9°F3.3°C 12.7°F-10.7°C 35% 2.3 mph NNW3.7 kmh NNW 4.6 mph7.4 kmh 29.48 in998.3 mb - 0.00 in0.0 mm 0.98 in24.9 mm
12:15 PM 37.9°F3.3°C 12.0°F-11.1°C 34% 2.3 mph NE3.7 kmh NE 3.5 mph5.6 kmh 29.48 in998.3 mb - 0.00 in0.0 mm 0.98 in24.9 mm
12:20 PM 37.9°F3.3°C 12.0°F-11.1°C 34% 2.3 mph NNE3.7 kmh NNE 1.2 mph1.9 kmh 29.48 in998.3 mb - 0.00 in0.0 mm 0.98 in24.9 mm
12:25 PM 37.9°F3.3°C 12.0°F-11.1°C 34% 2.3 mph 3.7 kmh 5.8 mph9.3 kmh 29.48 in998.3 mb - 0.00 in0.0 mm 0.98 in24.9 mm
12:30 PM 38.0°F3.3°C 12.1°F-11.1°C 34% 3.5 mph N5.6 kmh N 4.6 mph7.4 kmh 29.49 in998.6 mb - 0.00 in0.0 mm 0.98 in24.9 mm
12:35 PM 37.9°F3.3°C 12.0°F-11.1°C 34% 3.5 mph NNW5.6 kmh NNW 3.5 mph5.6 kmh 29.49 in998.6 mb - 0.00 in0.0 mm 0.98 in24.9 mm
12:40 PM 38.1°F3.4°C 12.2°F-11.0°C 34% 3.5 mph NNW5.6 kmh NNW 2.3 mph3.7 kmh 29.49 in998.6 mb - 0.00 in0.0 mm 0.98 in24.9 mm
12:45 PM 38.1°F3.4°C 12.2°F-11.0°C 34% 2.3 mph NNW3.7 kmh NNW 2.3 mph3.7 kmh 29.49 in998.6 mb - 0.00 in0.0 mm 0.98 in24.9 mm
12:50 PM 38.3°F3.5°C 12.3°F-10.9°C 34% 1.2 mph N1.9 kmh N 2.3 mph3.7 kmh 29.47 in998.0 mb - 0.00 in0.0 mm 0.98 in24.9 mm
12:55 PM 38.3°F3.5°C 12.3°F-10.9°C 34% 1.2 mph NW1.9 kmh NW 2.3 mph3.7 kmh 29.47 in998.0 mb - 0.00 in0.0 mm 0.98 in24.9 mm
01:00 PM 38.3°F3.5°C 12.3°F-10.9°C 34% 2.3 mph N3.7 kmh N 3.5 mph5.6 kmh 29.47 in998.0 mb - 0.00 in0.0 mm 0.98 in24.9 mm
01:10 PM 38.4°F3.6°C 13.1°F-10.5°C 35% 2.3 mph N3.7 kmh N 3.5 mph5.6 kmh 29.48 in998.3 mb - 0.00 in0.0 mm 0.98 in24.9 mm
01:15 PM 38.4°F3.6°C 13.1°F-10.5°C 35% 3.5 mph NNW5.6 kmh NNW 3.5 mph5.6 kmh 29.48 in998.3 mb - 0.00 in0.0 mm 0.98 in24.9 mm
01:20 PM 38.5°F3.6°C 13.2°F-10.4°C 35% 2.3 mph NW3.7 kmh NW 3.5 mph5.6 kmh 29.48 in998.3 mb - 0.00 in0.0 mm 0.98 in24.9 mm
01:25 PM 38.5°F3.6°C 12.5°F-10.8°C 34% 2.3 mph NW3.7 kmh NW 4.6 mph7.4 kmh 29.48 in998.3 mb - 0.00 in0.0 mm 0.98 in24.9 mm
01:30 PM 38.5°F3.6°C 12.5°F-10.8°C 34% 3.5 mph NNW5.6 kmh NNW 6.9 mph11.1 kmh 29.49 in998.6 mb - 0.00 in0.0 mm 0.98 in24.9 mm
01:35 PM 38.5°F3.6°C 13.2°F-10.4°C 35% 3.5 mph NNW5.6 kmh NNW 2.3 mph3.7 kmh 29.49 in998.6 mb - 0.00 in0.0 mm 0.98 in24.9 mm
01:40 PM 38.7°F3.7°C 12.7°F-10.7°C 34% 3.5 mph NW5.6 kmh NW 3.5 mph5.6 kmh 29.49 in998.6 mb - 0.00 in0.0 mm 0.98 in24.9 mm
01:45 PM 38.7°F3.7°C 13.3°F-10.4°C 35% 2.3 mph N3.7 kmh N 3.5 mph5.6 kmh 29.49 in998.6 mb - 0.00 in0.0 mm 0.98 in24.9 mm
01:50 PM 38.7°F3.7°C 12.7°F-10.7°C 34% 2.3 mph NNW3.7 kmh NNW 5.8 mph9.3 kmh 29.49 in998.6 mb - 0.00 in0.0 mm 0.98 in24.9 mm
01:55 PM 38.7°F3.7°C 13.3°F-10.4°C 35% 3.5 mph WNW5.6 kmh WNW 5.8 mph9.3 kmh 29.49 in998.6 mb - 0.00 in0.0 mm 0.98 in24.9 mm
02:00 PM 38.7°F3.7°C 13.3°F-10.4°C 35% 3.5 mph NNE5.6 kmh NNE 3.5 mph5.6 kmh 29.49 in998.6 mb - 0.00 in0.0 mm 0.98 in24.9 mm
02:10 PM 38.7°F3.7°C 13.3°F-10.4°C 35% 3.5 mph NNW5.6 kmh NNW 3.5 mph5.6 kmh 29.48 in998.3 mb - 0.00 in0.0 mm 0.98 in24.9 mm
02:15 PM 38.7°F3.7°C 13.3°F-10.4°C 35% 3.5 mph NW5.6 kmh NW 3.5 mph5.6 kmh 29.48 in998.3 mb - 0.00 in0.0 mm 0.98 in24.9 mm
02:20 PM 38.7°F3.7°C 13.3°F-10.4°C 35% 3.5 mph NNW5.6 kmh NNW 3.5 mph5.6 kmh 29.48 in998.3 mb - 0.00 in0.0 mm 0.98 in24.9 mm
02:25 PM 38.7°F3.7°C 14.0°F-10.0°C 36% 3.5 mph NW5.6 kmh NW 3.5 mph5.6 kmh 29.48 in998.3 mb - 0.00 in0.0 mm 0.98 in24.9 mm
02:30 PM 38.7°F3.7°C 14.6°F-9.7°C 37% 4.6 mph NW7.4 kmh NW 4.6 mph7.4 kmh 29.50 in999.0 mb - 0.00 in0.0 mm 0.98 in24.9 mm
02:35 PM 38.7°F3.7°C 15.2°F-9.3°C 38% 4.6 mph NNW7.4 kmh NNW 5.8 mph9.3 kmh 29.50 in999.0 mb - 0.00 in0.0 mm 0.98 in24.9 mm
02:40 PM 38.5°F3.6°C 15.1°F-9.4°C 38% 5.8 mph NNW9.3 kmh NNW 9.2 mph14.8 kmh 29.50 in999.0 mb - 0.00 in0.0 mm 0.98 in24.9 mm
02:45 PM 38.3°F3.5°C 15.5°F-9.2°C 39% 5.8 mph NNW9.3 kmh NNW 6.9 mph11.1 kmh 29.50 in999.0 mb - 0.00 in0.0 mm 0.98 in24.9 mm
02:50 PM 38.5°F3.6°C 15.6°F-9.1°C 39% 5.8 mph N9.3 kmh N 8.1 mph13.0 kmh 29.50 in999.0 mb - 0.00 in0.0 mm 0.98 in24.9 mm
02:55 PM 38.5°F3.6°C 15.6°F-9.1°C 39% 5.8 mph NW9.3 kmh NW 8.1 mph13.0 kmh 29.50 in999.0 mb - 0.00 in0.0 mm 0.98 in24.9 mm
03:00 PM 38.5°F3.6°C 16.2°F-8.8°C 40% 5.8 mph NW9.3 kmh NW 9.2 mph14.8 kmh 29.50 in999.0 mb - 0.00 in0.0 mm 0.98 in24.9 mm
03:10 PM 38.3°F3.5°C 16.6°F-8.6°C 41% 4.6 mph N7.4 kmh N 4.6 mph7.4 kmh 29.51 in999.3 mb - 0.00 in0.0 mm 0.98 in24.9 mm
03:15 PM 38.3°F3.5°C 16.6°F-8.6°C 41% 3.5 mph NNW5.6 kmh NNW 5.8 mph9.3 kmh 29.51 in999.3 mb - 0.00 in0.0 mm 0.98 in24.9 mm
03:20 PM 38.3°F3.5°C 16.6°F-8.6°C 41% 3.5 mph NNW5.6 kmh NNW 4.6 mph7.4 kmh 29.51 in999.3 mb - 0.00 in0.0 mm 0.98 in24.9 mm
03:25 PM 38.3°F3.5°C 17.2°F-8.2°C 42% 4.6 mph NNE7.4 kmh NNE 4.6 mph7.4 kmh 29.51 in999.3 mb - 0.00 in0.0 mm 0.98 in24.9 mm
03:30 PM 38.1°F3.4°C 17.0°F-8.3°C 42% 5.8 mph NNW9.3 kmh NNW 9.2 mph14.8 kmh 29.51 in999.3 mb - 0.00 in0.0 mm 0.98 in24.9 mm
03:35 PM 38.1°F3.4°C 17.0°F-8.3°C 42% 5.8 mph NW9.3 kmh NW 6.9 mph11.1 kmh 29.51 in999.3 mb - 0.00 in0.0 mm 0.98 in24.9 mm
03:40 PM 38.1°F3.4°C 17.6°F-8.0°C 43% 4.6 mph NW7.4 kmh NW 6.9 mph11.1 kmh 29.51 in999.3 mb - 0.00 in0.0 mm 0.98 in24.9 mm
03:45 PM 38.1°F3.4°C 17.6°F-8.0°C 43% 4.6 mph W7.4 kmh W 5.8 mph9.3 kmh 29.51 in999.3 mb - 0.00 in0.0 mm 0.98 in24.9 mm
03:50 PM 38.1°F3.4°C 17.5°F-8.1°C 43% 5.8 mph N9.3 kmh N 10.4 mph16.7 kmh 29.53 in1000.0 mb - 0.00 in0.0 mm 0.98 in24.9 mm
03:55 PM 38.1°F3.4°C 18.1°F-7.7°C 44% 6.9 mph NW11.1 kmh NW 9.2 mph14.8 kmh 29.53 in1000.0 mb - 0.00 in0.0 mm 0.98 in24.9 mm
04:00 PM 37.9°F3.3°C 17.9°F-7.8°C 44% 6.9 mph NW11.1 kmh NW 5.8 mph9.3 kmh 29.53 in1000.0 mb - 0.00 in0.0 mm 0.98 in24.9 mm
04:10 PM 38.1°F3.4°C 19.1°F-7.2°C 46% 6.9 mph NW11.1 kmh NW 6.9 mph11.1 kmh 29.54 in1000.3 mb - 0.00 in0.0 mm 0.98 in24.9 mm
04:15 PM 38.3°F3.5°C 21.3°F-5.9°C 50% 10.4 mph NW16.7 kmh NW 15.0 mph24.1 kmh 29.54 in1000.3 mb - 0.00 in0.0 mm 0.98 in24.9 mm
04:20 PM 38.3°F3.5°C 22.6°F-5.2°C 53% 11.5 mph NNW18.5 kmh NNW 16.1 mph25.9 kmh 29.54 in1000.3 mb - 0.00 in0.0 mm 0.98 in24.9 mm
04:25 PM 38.3°F3.5°C 24.8°F-4.0°C 58% 10.4 mph NNW16.7 kmh NNW 11.5 mph18.5 kmh 29.54 in1000.3 mb - 0.00 in0.0 mm 0.98 in24.9 mm
04:30 PM 38.3°F3.5°C 25.6°F-3.6°C 60% 10.4 mph NW16.7 kmh NW 18.4 mph29.6 kmh 29.55 in1000.7 mb - 0.00 in0.0 mm 0.98 in24.9 mm
04:35 PM 38.3°F3.5°C 26.4°F-3.1°C 62% 10.4 mph NNW16.7 kmh NNW 12.7 mph20.4 kmh 29.55 in1000.7 mb - 0.00 in0.0 mm 0.98 in24.9 mm
04:40 PM 38.1°F3.4°C 26.6°F-3.0°C 63% 9.2 mph NNW14.8 kmh NNW 11.5 mph18.5 kmh 29.55 in1000.7 mb - 0.00 in0.0 mm 0.98 in24.9 mm
04:45 PM 38.1°F3.4°C 27.8°F-2.3°C 66% 9.2 mph NNE14.8 kmh NNE 11.5 mph18.5 kmh 29.55 in1000.7 mb - 0.00 in0.0 mm 0.98 in24.9 mm
04:50 PM 38.1°F3.4°C 28.5°F-1.9°C 68% 9.2 mph NNW14.8 kmh NNW 11.5 mph18.5 kmh 29.57 in1001.4 mb - 0.00 in0.0 mm 0.98 in24.9 mm
04:55 PM 37.9°F3.3°C 28.7°F-1.8°C 69% 9.2 mph 14.8 kmh 9.2 mph14.8 kmh 29.57 in1001.4 mb - 0.00 in0.0 mm 0.98 in24.9 mm
05:00 PM 37.9°F3.3°C 28.7°F-1.8°C 69% 9.2 mph 14.8 kmh 13.8 mph22.2 kmh 29.57 in1001.4 mb - 0.00 in0.0 mm 0.98 in24.9 mm
05:10 PM 37.8°F3.2°C 28.9°F-1.7°C 70% 8.1 mph NW13.0 kmh NW 13.8 mph22.2 kmh 29.59 in1002.0 mb - 0.00 in0.0 mm 0.98 in24.9 mm
05:15 PM 37.6°F3.1°C 28.7°F-1.8°C 70% 8.1 mph NNE13.0 kmh NNE 11.5 mph18.5 kmh 29.59 in1002.0 mb - 0.00 in0.0 mm 0.98 in24.9 mm
05:20 PM 37.6°F3.1°C 28.7°F-1.8°C 70% 8.1 mph NW13.0 kmh NW 9.2 mph14.8 kmh 29.59 in1002.0 mb - 0.00 in0.0 mm 0.98 in24.9 mm
05:25 PM 37.4°F3.0°C 28.5°F-1.9°C 70% 8.1 mph NNW13.0 kmh NNW 6.9 mph11.1 kmh 29.59 in1002.0 mb - 0.00 in0.0 mm 0.98 in24.9 mm
05:30 PM 37.2°F2.9°C 28.3°F-2.1°C 70% 5.8 mph NNW9.3 kmh NNW 9.2 mph14.8 kmh 29.61 in1002.7 mb - 0.00 in0.0 mm 0.98 in24.9 mm
05:35 PM 37.2°F2.9°C 28.3°F-2.1°C 70% 5.8 mph NNE9.3 kmh NNE 8.1 mph13.0 kmh 29.61 in1002.7 mb - 0.00 in0.0 mm 0.98 in24.9 mm
05:40 PM 37.2°F2.9°C 28.3°F-2.1°C 70% 5.8 mph 9.3 kmh 8.1 mph13.0 kmh 29.61 in1002.7 mb - 0.00 in0.0 mm 0.98 in24.9 mm
05:45 PM 37.0°F2.8°C 28.2°F-2.1°C 70% 5.8 mph NNW9.3 kmh NNW 10.4 mph16.7 kmh 29.61 in1002.7 mb - 0.00 in0.0 mm 0.98 in24.9 mm
05:50 PM 36.9°F2.7°C 28.0°F-2.2°C 70% 5.8 mph NNW9.3 kmh NNW 8.1 mph13.0 kmh 29.61 in1002.7 mb - 0.00 in0.0 mm 0.98 in24.9 mm
05:55 PM 36.9°F2.7°C 28.0°F-2.2°C 70% 6.9 mph NNW11.1 kmh NNW 8.1 mph13.0 kmh 29.61 in1002.7 mb - 0.00 in0.0 mm 0.98 in24.9 mm
06:00 PM 36.7°F2.6°C 27.8°F-2.3°C 70% 6.9 mph NNW11.1 kmh NNW 10.4 mph16.7 kmh 29.61 in1002.7 mb - 0.00 in0.0 mm 0.98 in24.9 mm
06:10 PM 36.5°F2.5°C 28.0°F-2.2°C 71% 8.1 mph NNE13.0 kmh NNE 6.9 mph11.1 kmh 29.60 in1002.4 mb - 0.00 in0.0 mm 0.98 in24.9 mm
06:15 PM 36.5°F2.5°C 28.0°F-2.2°C 71% 8.1 mph W13.0 kmh W 6.9 mph11.1 kmh 29.60 in1002.4 mb - 0.00 in0.0 mm 0.98 in24.9 mm
06:20 PM 36.5°F2.5°C 28.3°F-2.1°C 72% 6.9 mph NNW11.1 kmh NNW 5.8 mph9.3 kmh 29.60 in1002.4 mb - 0.00 in0.0 mm 0.98 in24.9 mm
06:25 PM 36.5°F2.5°C 28.3°F-2.1°C 72% 5.8 mph 9.3 kmh 9.2 mph14.8 kmh 29.60 in1002.4 mb - 0.00 in0.0 mm 0.98 in24.9 mm
06:30 PM 36.5°F2.5°C 28.3°F-2.1°C 72% 5.8 mph NW9.3 kmh NW 10.4 mph16.7 kmh 29.61 in1002.7 mb - 0.00 in0.0 mm 0.98 in24.9 mm
06:35 PM 36.5°F2.5°C 29.0°F-1.7°C 74% 8.1 mph SSE13.0 kmh SSE 11.5 mph18.5 kmh 29.61 in1002.7 mb - 0.00 in0.0 mm 0.98 in24.9 mm
06:40 PM 36.5°F2.5°C 29.3°F-1.5°C 75% 8.1 mph NW13.0 kmh NW 6.9 mph11.1 kmh 29.61 in1002.7 mb - 0.00 in0.0 mm 0.98 in24.9 mm
06:45 PM 36.6°F2.6°C 29.7°F-1.3°C 76% 8.1 mph NNW13.0 kmh NNW 10.4 mph16.7 kmh 29.61 in1002.7 mb - 0.00 in0.0 mm 0.98 in24.9 mm
06:50 PM 36.7°F2.6°C 30.1°F-1.1°C 77% 9.2 mph NNW14.8 kmh NNW 10.4 mph16.7 kmh 29.61 in1002.7 mb - 0.00 in0.0 mm 0.98 in24.9 mm
06:55 PM 36.7°F2.6°C 30.5°F-0.8°C 78% 9.2 mph NNW14.8 kmh NNW 11.5 mph18.5 kmh 29.61 in1002.7 mb - 0.00 in0.0 mm 0.98 in24.9 mm
07:00 PM 36.7°F2.6°C 30.5°F-0.8°C 78% 9.2 mph NNW14.8 kmh NNW 12.7 mph20.4 kmh 29.61 in1002.7 mb - 0.00 in0.0 mm 0.98 in24.9 mm
07:10 PM 36.5°F2.5°C 30.6°F-0.8°C 79% 8.1 mph NNW13.0 kmh NNW 6.9 mph11.1 kmh 29.62 in1003.0 mb - 0.00 in0.0 mm 0.98 in24.9 mm
07:15 PM 36.6°F2.6°C 31.0°F-0.6°C 80% 9.2 mph WNW14.8 kmh WNW 19.6 mph31.5 kmh 29.62 in1003.0 mb - 0.00 in0.0 mm 0.98 in24.9 mm
07:20 PM 36.7°F2.6°C 31.1°F-0.5°C 80% 9.2 mph NNW14.8 kmh NNW 13.8 mph22.2 kmh 29.62 in1003.0 mb - 0.00 in0.0 mm 0.98 in24.9 mm
07:25 PM 36.7°F2.6°C 31.4°F-0.3°C 81% 9.2 mph NW14.8 kmh NW 11.5 mph18.5 kmh 29.62 in1003.0 mb - 0.00 in0.0 mm 0.98 in24.9 mm
07:30 PM 36.7°F2.6°C 31.1°F-0.5°C 80% 9.2 mph NNW14.8 kmh NNW 8.1 mph13.0 kmh 29.64 in1003.7 mb - 0.00 in0.0 mm 0.98 in24.9 mm
07:35 PM 36.7°F2.6°C 31.4°F-0.3°C 81% 9.2 mph NW14.8 kmh NW 10.4 mph16.7 kmh 29.64 in1003.7 mb - 0.00 in0.0 mm 0.98 in24.9 mm
07:40 PM 36.7°F2.6°C 31.4°F-0.3°C 81% 8.1 mph NW13.0 kmh NW 10.4 mph16.7 kmh 29.64 in1003.7 mb - 0.00 in0.0 mm 0.98 in24.9 mm
07:45 PM 36.7°F2.6°C 31.4°F-0.3°C 81% 8.1 mph NNE13.0 kmh NNE 10.4 mph16.7 kmh 29.64 in1003.7 mb - 0.00 in0.0 mm 0.98 in24.9 mm
07:50 PM 36.5°F2.5°C 31.2°F-0.4°C 81% 8.1 mph NW13.0 kmh NW 13.8 mph22.2 kmh 29.64 in1003.7 mb - 0.00 in0.0 mm 0.98 in24.9 mm
07:55 PM 36.7°F2.6°C 31.4°F-0.3°C 81% 9.2 mph NW14.8 kmh NW 11.5 mph18.5 kmh 29.64 in1003.7 mb - 0.00 in0.0 mm 0.98 in24.9 mm
08:00 PM 36.7°F2.6°C 31.4°F-0.3°C 81% 9.2 mph NW14.8 kmh NW 11.5 mph18.5 kmh 29.64 in1003.7 mb - 0.00 in0.0 mm 0.98 in24.9 mm
08:10 PM 36.7°F2.6°C 31.4°F-0.3°C 81% 8.1 mph 13.0 kmh 11.5 mph18.5 kmh 29.66 in1004.4 mb - 0.00 in0.0 mm 0.98 in24.9 mm
08:15 PM 36.7°F2.6°C 31.1°F-0.5°C 80% 9.2 mph NW14.8 kmh NW 15.0 mph24.1 kmh 29.66 in1004.4 mb - 0.00 in0.0 mm 0.98 in24.9 mm
08:20 PM 36.7°F2.6°C 31.1°F-0.5°C 80% 9.2 mph NW14.8 kmh NW 15.0 mph24.1 kmh 29.66 in1004.4 mb - 0.00 in0.0 mm 0.98 in24.9 mm
08:25 PM 36.7°F2.6°C 31.1°F-0.5°C 80% 8.1 mph 13.0 kmh 10.4 mph16.7 kmh 29.66 in1004.4 mb - 0.00 in0.0 mm 0.98 in24.9 mm
08:30 PM 36.7°F2.6°C 31.1°F-0.5°C 80% 9.2 mph WNW14.8 kmh WNW 9.2 mph14.8 kmh 29.68 in1005.1 mb - 0.00 in0.0 mm 0.98 in24.9 mm
08:35 PM 36.9°F2.7°C 31.3°F-0.4°C 80% 9.2 mph NNW14.8 kmh NNW 9.2 mph14.8 kmh 29.68 in1005.1 mb - 0.00 in0.0 mm 0.98 in24.9 mm
08:40 PM 36.9°F2.7°C 31.3°F-0.4°C 80% 9.2 mph NNW14.8 kmh NNW 8.1 mph13.0 kmh 29.68 in1005.1 mb - 0.00 in0.0 mm 0.98 in24.9 mm
08:45 PM 37.0°F2.8°C 31.4°F-0.3°C 80% 9.2 mph N14.8 kmh N 13.8 mph22.2 kmh 29.68 in1005.1 mb - 0.00 in0.0 mm 0.98 in24.9 mm
08:50 PM 37.0°F2.8°C 31.4°F-0.3°C 80% 9.2 mph NNW14.8 kmh NNW 8.1 mph13.0 kmh 29.69 in1005.4 mb - 0.00 in0.0 mm 0.98 in24.9 mm
08:55 PM 37.0°F2.8°C 31.4°F-0.3°C 80% 10.4 mph NNW16.7 kmh NNW 13.8 mph22.2 kmh 29.69 in1005.4 mb - 0.00 in0.0 mm 0.98 in24.9 mm
09:00 PM 37.0°F2.8°C 31.4°F-0.3°C 80% 9.2 mph NNE14.8 kmh NNE 11.5 mph18.5 kmh 29.69 in1005.4 mb - 0.00 in0.0 mm 0.98 in24.9 mm
09:10 PM 37.0°F2.8°C 31.1°F-0.5°C 79% 10.4 mph NNW16.7 kmh NNW 11.5 mph18.5 kmh 29.70 in1005.8 mb - 0.00 in0.0 mm 0.98 in24.9 mm
09:15 PM 37.0°F2.8°C 31.1°F-0.5°C 79% 10.4 mph NNW16.7 kmh NNW 17.3 mph27.8 kmh 29.70 in1005.8 mb - 0.00 in0.0 mm 0.98 in24.9 mm
09:20 PM 37.0°F2.8°C 31.1°F-0.5°C 79% 9.2 mph NNW14.8 kmh NNW 10.4 mph16.7 kmh 29.70 in1005.8 mb - 0.00 in0.0 mm 0.98 in24.9 mm
09:25 PM 37.2°F2.9°C 31.0°F-0.6°C 78% 10.4 mph NNE16.7 kmh NNE 13.8 mph22.2 kmh 29.70 in1005.8 mb - 0.00 in0.0 mm 0.98 in24.9 mm
09:30 PM 37.2°F2.9°C 31.0°F-0.6°C 78% 10.4 mph NNE16.7 kmh NNE 17.3 mph27.8 kmh 29.72 in1006.4 mb - 0.00 in0.0 mm 0.98 in24.9 mm
09:35 PM 37.2°F2.9°C 30.7°F-0.7°C 77% 9.2 mph N14.8 kmh N 10.4 mph16.7 kmh 29.72 in1006.4 mb - 0.00 in0.0 mm 0.98 in24.9 mm
09:40 PM 37.2°F2.9°C 30.7°F-0.7°C 77% 9.2 mph NNW14.8 kmh NNW 15.0 mph24.1 kmh 29.72 in1006.4 mb - 0.00 in0.0 mm 0.98 in24.9 mm
09:45 PM 37.0°F2.8°C 30.5°F-0.8°C 77% 10.4 mph NW16.7 kmh NW 17.3 mph27.8 kmh 29.72 in1006.4 mb - 0.00 in0.0 mm 0.98 in24.9 mm
09:50 PM 37.0°F2.8°C 30.5°F-0.8°C 77% 10.4 mph WNW16.7 kmh WNW 10.4 mph16.7 kmh 29.72 in1006.4 mb - 0.00 in0.0 mm 0.98 in24.9 mm
09:55 PM 37.0°F2.8°C 30.5°F-0.8°C 77% 10.4 mph 16.7 kmh 17.3 mph27.8 kmh 29.72 in1006.4 mb - 0.00 in0.0 mm 0.98 in24.9 mm
10:00 PM 36.9°F2.7°C 30.3°F-0.9°C 77% 10.4 mph NNW16.7 kmh NNW 12.7 mph20.4 kmh 29.72 in1006.4 mb - 0.00 in0.0 mm 0.98 in24.9 mm
10:10 PM 36.8°F2.7°C 29.9°F-1.2°C 76% 9.2 mph NNW14.8 kmh NNW 10.4 mph16.7 kmh 29.72 in1006.4 mb - 0.00 in0.0 mm 0.98 in24.9 mm
10:15 PM 36.7°F2.6°C 29.8°F-1.2°C 76% 11.5 mph NNE18.5 kmh NNE 15.0 mph24.1 kmh 29.72 in1006.4 mb - 0.00 in0.0 mm 0.98 in24.9 mm
10:20 PM 36.7°F2.6°C 29.8°F-1.2°C 76% 10.4 mph NW16.7 kmh NW 12.7 mph20.4 kmh 29.72 in1006.4 mb - 0.00 in0.0 mm 0.98 in24.9 mm
10:25 PM 36.5°F2.5°C 29.7°F-1.3°C 76% 10.4 mph NW16.7 kmh NW 11.5 mph18.5 kmh 29.72 in1006.4 mb - 0.00 in0.0 mm 0.98 in24.9 mm
10:30 PM 36.5°F2.5°C 29.7°F-1.3°C 76% 10.4 mph NNW16.7 kmh NNW 18.4 mph29.6 kmh 29.72 in1006.4 mb - 0.00 in0.0 mm 0.98 in24.9 mm
10:35 PM 36.5°F2.5°C 29.7°F-1.3°C 76% 9.2 mph NW14.8 kmh NW 9.2 mph14.8 kmh 29.72 in1006.4 mb - 0.00 in0.0 mm 0.98 in24.9 mm
10:40 PM 36.3°F2.4°C 29.5°F-1.4°C 76% 8.1 mph NW13.0 kmh NW 10.4 mph16.7 kmh 29.72 in1006.4 mb - 0.00 in0.0 mm 0.98 in24.9 mm
10:45 PM 36.3°F2.4°C 29.2°F-1.6°C 75% 9.2 mph NNW14.8 kmh NNW 15.0 mph24.1 kmh 29.72 in1006.4 mb - 0.00 in0.0 mm 0.98 in24.9 mm
10:50 PM 36.1°F2.3°C 29.0°F-1.7°C 75% 8.1 mph NNW13.0 kmh NNW 5.8 mph9.3 kmh 29.73 in1006.8 mb - 0.00 in0.0 mm 0.98 in24.9 mm
10:55 PM 36.0°F2.2°C 28.8°F-1.8°C 75% 8.1 mph NNW13.0 kmh NNW 11.5 mph18.5 kmh 29.73 in1006.8 mb - 0.00 in0.0 mm 0.98 in24.9 mm
11:00 PM 36.0°F2.2°C 28.8°F-1.8°C 75% 8.1 mph NW13.0 kmh NW 11.5 mph18.5 kmh 29.73 in1006.8 mb - 0.00 in0.0 mm 0.98 in24.9 mm
11:10 PM 36.0°F2.2°C 28.6°F-1.9°C 74% 9.2 mph NW14.8 kmh NW 13.8 mph22.2 kmh 29.74 in1007.1 mb - 0.00 in0.0 mm 0.98 in24.9 mm
11:15 PM 36.1°F2.3°C 29.0°F-1.7°C 75% 9.2 mph NW14.8 kmh NW 10.4 mph16.7 kmh 29.74 in1007.1 mb - 0.00 in0.0 mm 0.98 in24.9 mm
11:20 PM 36.1°F2.3°C 28.6°F-1.9°C 74% 9.2 mph NW14.8 kmh NW 12.7 mph20.4 kmh 29.74 in1007.1 mb - 0.00 in0.0 mm 0.98 in24.9 mm
11:25 PM 36.0°F2.2°C 28.5°F-1.9°C 74% 10.4 mph NW16.7 kmh NW 10.4 mph16.7 kmh 29.74 in1007.1 mb - 0.00 in0.0 mm 0.98 in24.9 mm
11:30 PM 36.1°F2.3°C 28.6°F-1.9°C 74% 9.2 mph NNW14.8 kmh NNW 11.5 mph18.5 kmh 29.74 in1007.1 mb - 0.00 in0.0 mm 0.98 in24.9 mm
11:35 PM 36.1°F2.3°C 28.6°F-1.9°C 74% 8.1 mph NW13.0 kmh NW 9.2 mph14.8 kmh 29.74 in1007.1 mb - 0.00 in0.0 mm 0.98 in24.9 mm
11:40 PM 36.1°F2.3°C 28.3°F-2.1°C 73% 9.2 mph NW14.8 kmh NW 10.4 mph16.7 kmh 29.74 in1007.1 mb - 0.00 in0.0 mm 0.98 in24.9 mm
11:45 PM 36.1°F2.3°C 28.3°F-2.1°C 73% 9.2 mph NW14.8 kmh NW 10.4 mph16.7 kmh 29.74 in1007.1 mb - 0.00 in0.0 mm 0.98 in24.9 mm
11:50 PM 36.1°F2.3°C 28.3°F-2.1°C 73% 8.1 mph NW13.0 kmh NW 13.8 mph22.2 kmh 29.75 in1007.5 mb - 0.00 in0.0 mm 0.98 in24.9 mm
11:55 PM 36.1°F2.3°C 28.3°F-2.1°C 73% 8.1 mph NNE13.0 kmh NNE 10.4 mph16.7 kmh 29.75 in1007.5 mb - 0.00 in0.0 mm 0.98 in24.9 mm